YUKO2: Yukon 2NNE(N Canadian R)

Data processed at Sun Dec 16 2018 23:32


All information presented herein is the property of the government of the United States of America and may be revised or deleted at any time without prior notice.
Dissemination of this information without the expressed written consent of the Public Affairs Office, Tulsa District U.S. Army Corps of Engineers is strictly prohibited.
These data are gathered electronically and, as presented, have not undergone any form of quality control. These data are not guaranteed to be valid or correct.
Go to home page.
Go to station list.
Go to home page.

Upstream stations:

Downstream station:
Previous Day
Next Day
Current Day
    
SHEF ID:       YUKO2     North Canadian River near Yukon,
STATION TYPE:  

                STAGE  STAGE(2)  RIV-FLOW  WTR-TEMP   CONDUCT  BAT-LOAD
                   ft        ft       cfs         F   umho/cm      volt
              Ccp-Rev   Ccp-Rev   Ccp-Rev   Ccp-Rev   Ccp-Rev   Ccp-Rev
(US/Central)
12/16 00:00      2.49      ----       253     39.87      1612     12.83
12/16 01:00      2.49      ----       253     39.70      1612     12.83
12/16 02:00      2.50      ----       255     39.56      1612     12.83
12/16 03:00      2.51      ----       257     39.43      1613     12.77
12/16 04:00      2.49      ----       253     39.36      1613     12.83
12/16 05:00      2.50      ----       255     39.31      1614     12.77
12/16 06:00      2.50      ----       255     39.24      1615     12.77
12/16 07:00      2.49      ----       253     39.16      1616     12.77
12/16 08:00      2.49      ----       253     39.07      1617     12.71
12/16 09:00      2.49      ----       253     39.13      1617     12.89
12/16 10:00      2.48      ----       251     39.36      1616     13.59
12/16 11:00      2.46      ----       246     39.81      1615     14.71
12/16 12:00      2.44      ----       242     40.46      1613     14.59
12/16 13:00      2.44      ----       242     41.04      1612     14.71
12/16 14:00      2.43      ----       240     41.92      1610     14.53
12/16 15:00      2.43      ----       240     42.44      1607     14.53
12/16 16:00      2.43      ----       240     42.44      1608     14.41
12/16 17:00      2.43      ----       240     42.03      1608     14.12
12/16 18:00      2.45      ----       244     41.65      1609     13.53
12/16 19:00      2.46      ----       246     41.38      1611     13.24
12/16 20:00      2.46      ----       246     41.22      1612     13.07
12/16 21:00      2.47      ----       249     41.04      1613     12.95
12/16 22:00      2.47      ----       249     40.89      1613     12.89
12/16 23:00      ----      ----      ----      ----      ----      ----